createdAt,value
2023-01-19T00:01:11.067Z,94945.13
2023-01-19T00:03:38.973Z,94950.31
2023-01-19T00:06:08.545Z,94956.13
2023-01-19T00:08:36.690Z,94952.81
2023-01-19T00:11:05.101Z,94960.81
2023-01-19T00:13:34.446Z,94958.47
2023-01-19T00:16:02.409Z,94962.91
2023-01-19T00:18:30.403Z,94970.78
2023-01-19T00:20:58.611Z,94968.28
2023-01-19T00:23:26.552Z,94976.59
2023-01-19T00:25:54.493Z,94985.03
2023-01-19T00:28:22.407Z,94979.06
2023-01-19T00:30:52.159Z,94979.94
2023-01-19T00:33:20.066Z,94979.50
2023-01-19T00:35:52.440Z,94991.56
2023-01-19T00:38:20.393Z,94987.13
2023-01-19T00:40:50.638Z,94995.88
2023-01-19T00:43:17.559Z,94997.78
2023-01-19T00:45:46.389Z,94990.19
2023-01-19T00:48:15.649Z,94987.94
2023-01-19T00:50:43.574Z,94978.53
2023-01-19T00:53:11.457Z,94981.28
2023-01-19T00:55:39.387Z,94969.25
2023-01-19T00:58:07.657Z,94964.06
2023-01-19T01:00:35.581Z,94967.41
2023-01-19T01:03:03.931Z,94962.28
2023-01-19T01:05:33.383Z,94964.22
2023-01-19T01:08:01.291Z,94954.94
2023-01-19T01:10:30.565Z,94960.13
2023-01-19T01:12:59.264Z,94959.56
2023-01-19T01:15:28.338Z,94962.88
2023-01-19T01:17:56.744Z,94965.69
2023-01-19T01:20:27.775Z,94969.38
2023-01-19T01:22:58.966Z,94964.22
2023-01-19T01:25:28.745Z,94969.66
2023-01-19T01:28:04.118Z,94970.22
2023-01-19T01:30:32.233Z,94967.72
2023-01-19T01:33:00.413Z,94974.31
2023-01-19T01:35:28.570Z,94978.34
2023-01-19T01:38:00.791Z,94975.69
2023-01-19T01:40:28.752Z,94974.75
2023-01-19T01:42:59.255Z,94983.06
2023-01-19T01:45:31.647Z,94977.34
2023-01-19T01:48:03.120Z,94985.56
2023-01-19T01:50:34.267Z,94982.13
2023-01-19T01:53:08.217Z,94989.19
2023-01-19T01:55:38.894Z,94978.09
2023-01-19T01:58:07.239Z,94983.41
2023-01-19T02:00:49.031Z,94985.56
2023-01-19T02:03:17.344Z,94989.47
2023-01-19T02:05:45.787Z,94991.03
2023-01-19T02:08:34.447Z,94992.63
2023-01-19T02:11:21.694Z,94986.75
2023-01-19T02:13:49.726Z,94991.72
2023-01-19T02:16:18.557Z,94993.59
2023-01-19T02:18:46.671Z,94995.69
2023-01-19T02:21:18.941Z,94996.63
2023-01-19T02:23:50.498Z,94998.47
2023-01-19T02:26:20.803Z,94999.97
2023-01-19T02:28:53.407Z,94995.38
2023-01-19T02:31:21.353Z,94991.44
2023-01-19T02:33:49.256Z,94988.50
2023-01-19T02:36:18.543Z,94986.81
2023-01-19T02:38:49.640Z,95001.09
2023-01-19T02:41:21.625Z,94998.69
2023-01-19T02:43:50.348Z,95001.06
2023-01-19T02:46:18.356Z,94993.72
2023-01-19T02:51:29.681Z,94988.66
2023-01-19T02:54:14.744Z,94983.81
2023-01-19T02:56:56.499Z,94980.84
2023-01-19T02:59:33.823Z,94985.44
2023-01-19T03:02:09.897Z,94983.59
2023-01-19T03:04:49.826Z,94986.78
2023-01-19T03:07:23.350Z,94985.31
2023-01-19T03:09:55.586Z,94990.28
2023-01-19T03:12:28.592Z,94998.53
2023-01-19T03:14:59.156Z,94994.38
2023-01-19T03:17:28.168Z,94999.88
2023-01-19T03:20:00.506Z,95001.50
2023-01-19T03:22:32.812Z,95005.19
2023-01-19T03:25:02.940Z,95005.81
2023-01-19T03:27:32.772Z,94994.25
2023-01-19T03:30:02.247Z,94990.28
2023-01-19T03:32:35.601Z,94995.81
2023-01-19T03:35:06.002Z,95001.75
2023-01-19T03:37:37.093Z,95000.75
2023-01-19T03:40:07.561Z,95007.19
2023-01-19T03:42:37.007Z,95013.34
2023-01-19T03:45:05.659Z,95017.44
2023-01-19T03:47:33.584Z,95023.59
2023-01-19T03:50:04.013Z,95029.00
2023-01-19T03:52:33.640Z,95033.31
2023-01-19T03:55:01.966Z,95026.34
2023-01-19T03:57:31.334Z,95031.44
2023-01-19T04:00:06.813Z,95025.00
2023-01-19T04:02:34.721Z,95032.13
2023-01-19T04:05:02.666Z,95039.50
2023-01-19T04:07:32.845Z,95031.44
2023-01-19T04:10:00.757Z,95038.78
2023-01-19T04:12:30.952Z,95054.75
2023-01-19T04:15:00.203Z,95052.38
2023-01-19T04:17:29.878Z,95055.66
2023-01-19T04:19:57.867Z,95061.69
2023-01-19T04:22:28.774Z,95057.38
2023-01-19T04:24:56.784Z,95061.25
2023-01-19T04:27:26.109Z,95062.53
2023-01-19T04:29:54.142Z,95068.22
2023-01-19T04:32:25.735Z,95069.97
2023-01-19T04:34:53.650Z,95072.19
2023-01-19T04:37:21.626Z,95074.72
2023-01-19T04:39:55.455Z,95077.81
2023-01-19T04:42:26.254Z,95084.19
2023-01-19T04:44:54.215Z,95082.53
2023-01-19T04:47:23.453Z,95085.34
2023-01-19T04:49:53.681Z,95089.78
2023-01-19T04:52:21.629Z,95086.03
2023-01-19T04:54:49.611Z,95088.47
2023-01-19T04:57:27.530Z,95087.81
2023-01-19T04:59:55.450Z,95080.31
2023-01-19T05:02:25.043Z,95087.88
2023-01-19T05:04:55.256Z,95083.59
2023-01-19T05:07:25.063Z,95091.88
2023-01-19T05:09:53.840Z,95090.47
2023-01-19T05:12:21.844Z,95092.84
2023-01-19T05:14:49.758Z,95098.84
2023-01-19T05:17:17.650Z,95100.56
2023-01-19T05:19:50.168Z,95103.72
2023-01-19T05:22:18.173Z,95103.72
2023-01-19T05:24:46.125Z,95103.84
2023-01-19T05:27:16.170Z,95107.09
2023-01-19T05:29:44.086Z,95113.78
2023-01-19T05:32:13.771Z,95110.00
2023-01-19T05:34:41.667Z,95112.13
2023-01-19T05:37:11.601Z,95112.13
2023-01-19T05:39:39.531Z,95104.00
2023-01-19T05:42:07.480Z,95105.03
2023-01-19T05:44:35.374Z,95108.94
2023-01-19T05:47:03.259Z,95108.06
2023-01-19T05:49:33.809Z,95101.63
2023-01-19T05:52:03.549Z,95119.25
2023-01-19T05:54:32.870Z,95115.22
2023-01-19T05:57:00.812Z,95114.50
2023-01-19T05:59:28.722Z,95111.16
2023-01-19T06:01:57.261Z,95115.38
2023-01-19T06:04:25.389Z,95123.44
2023-01-19T06:06:53.303Z,95121.75
2023-01-19T06:09:24.054Z,95126.78
2023-01-19T06:11:59.157Z,95125.72
2023-01-19T06:14:27.115Z,95133.50
2023-01-19T06:16:55.148Z,95132.41
2023-01-19T06:19:24.907Z,95134.31
2023-01-19T06:21:52.793Z,95135.88
2023-01-19T06:24:20.704Z,95140.09
2023-01-19T06:26:48.636Z,95150.97
2023-01-19T06:29:21.408Z,95156.38
2023-01-19T06:31:49.646Z,95156.69
2023-01-19T06:34:23.361Z,95162.28
2023-01-19T06:36:51.348Z,95157.94
2023-01-19T06:39:21.547Z,95162.22
2023-01-19T06:41:49.452Z,95171.25
2023-01-19T06:44:18.732Z,95178.50
2023-01-19T06:46:48.868Z,95164.13
2023-01-19T06:49:16.814Z,95166.72
2023-01-19T06:51:46.819Z,95163.28
2023-01-19T06:54:14.804Z,95163.91
2023-01-19T06:56:42.819Z,95164.94
2023-01-19T06:59:10.922Z,95160.78
2023-01-19T07:01:40.240Z,95159.91
2023-01-19T07:04:08.216Z,95162.53
2023-01-19T07:06:38.209Z,95164.09
2023-01-19T07:09:10.110Z,95160.66
2023-01-19T07:11:38.300Z,95167.03
2023-01-19T07:14:06.230Z,95175.03
2023-01-19T07:16:34.190Z,95187.16
2023-01-19T07:19:03.481Z,95175.75
2023-01-19T07:21:31.438Z,95178.69
2023-01-19T07:23:59.336Z,95181.53
2023-01-19T07:26:28.035Z,95185.69
2023-01-19T07:28:55.950Z,95195.50
2023-01-19T07:31:23.955Z,95202.44
2023-01-19T07:33:54.273Z,95192.34
2023-01-19T07:36:23.514Z,95197.66
2023-01-19T07:38:51.483Z,95198.34
2023-01-19T07:41:19.395Z,95203.72
2023-01-19T07:43:47.350Z,95205.47
2023-01-19T07:46:15.263Z,95208.69
2023-01-19T07:48:44.414Z,95215.97
2023-01-19T07:51:19.204Z,95208.31
2023-01-19T07:53:51.109Z,95213.94
2023-01-19T07:56:19.092Z,95215.00
2023-01-19T07:58:47.631Z,95215.00
2023-01-19T08:01:15.616Z,95219.94
2023-01-19T08:03:43.667Z,95214.09
2023-01-19T08:06:19.941Z,95213.88
2023-01-19T08:08:49.379Z,95219.22
2023-01-19T08:11:17.295Z,95215.06
2023-01-19T08:13:45.215Z,95213.88
2023-01-19T08:16:13.116Z,95207.34
2023-01-19T08:18:59.370Z,95205.75
2023-01-19T08:21:46.353Z,95209.97
2023-01-19T08:24:34.191Z,95216.84
2023-01-19T08:27:21.961Z,95218.19
2023-01-19T08:30:10.100Z,95220.19
2023-01-19T08:33:03.790Z,95231.66
2023-01-19T08:35:54.963Z,95231.63
2023-01-19T08:38:44.114Z,95242.66
2023-01-19T08:41:32.480Z,95250.53
2023-01-19T08:44:19.256Z,95258.81
2023-01-19T08:47:05.904Z,95262.44
2023-01-19T08:49:52.692Z,95266.22
2023-01-19T08:52:23.933Z,95265.69
2023-01-19T08:54:51.844Z,95276.25
2023-01-19T08:57:21.133Z,95287.09
2023-01-19T08:59:50.825Z,95282.53
2023-01-19T09:02:40.404Z,95289.63
2023-01-19T09:05:26.972Z,95291.78
2023-01-19T09:07:55.200Z,95304.00
2023-01-19T09:10:30.517Z,95307.88
2023-01-19T09:13:03.029Z,95298.38
2023-01-19T09:15:31.030Z,95292.94
2023-01-19T09:18:00.486Z,95295.56
2023-01-19T09:20:30.941Z,95301.59
2023-01-19T09:22:59.196Z,95304.56
2023-01-19T09:25:27.100Z,95307.19
2023-01-19T09:27:59.114Z,95304.72
2023-01-19T09:30:28.873Z,95309.03
2023-01-19T09:32:58.677Z,95309.19
2023-01-19T09:35:27.341Z,95303.41
2023-01-19T09:37:55.271Z,95302.22
2023-01-19T09:40:23.192Z,95300.59
2023-01-19T09:42:57.445Z,95298.50
2023-01-19T09:45:30.935Z,95298.41
2023-01-19T09:48:00.159Z,95300.13
2023-01-19T09:50:30.544Z,95293.00
2023-01-19T09:53:02.416Z,95301.66
2023-01-19T09:55:30.789Z,95292.63
2023-01-19T09:58:01.659Z,95289.81
2023-01-19T10:00:32.708Z,95281.88
2023-01-19T10:03:06.226Z,95277.91
2023-01-19T10:05:39.958Z,95277.03
2023-01-19T10:08:19.179Z,95267.72
2023-01-19T10:10:49.726Z,95273.31
2023-01-19T10:13:28.901Z,95269.75
2023-01-19T10:16:05.016Z,95267.88
2023-01-19T10:18:47.471Z,95267.78
2023-01-19T10:21:23.149Z,95264.38
2023-01-19T10:23:54.387Z,95264.81
2023-01-19T10:26:27.703Z,95260.66
2023-01-19T10:28:58.565Z,95254.03
2023-01-19T10:31:28.007Z,95261.38
2023-01-19T10:33:56.034Z,95257.38
2023-01-19T10:36:29.001Z,95248.44
2023-01-19T10:38:56.907Z,95254.84
2023-01-19T10:41:28.394Z,95253.56
2023-01-19T10:44:01.506Z,95252.03
2023-01-19T10:46:36.296Z,95250.16
2023-01-19T10:49:06.871Z,95259.41
2023-01-19T10:51:36.031Z,95252.66
2023-01-19T10:54:05.358Z,95255.47
2023-01-19T10:56:37.686Z,95255.50
2023-01-19T10:59:07.681Z,95256.13
2023-01-19T11:01:38.103Z,95257.06
2023-01-19T11:04:21.833Z,95258.19
2023-01-19T11:06:49.741Z,95259.56
2023-01-19T11:09:19.651Z,95253.22
2023-01-19T11:11:50.336Z,95256.63
2023-01-19T11:14:24.910Z,95258.50
2023-01-19T11:16:56.116Z,95263.66
2023-01-19T11:19:30.830Z,95257.28
2023-01-19T11:22:21.682Z,95268.06
2023-01-19T11:24:50.272Z,95266.44
2023-01-19T11:27:18.871Z,95269.97
2023-01-19T11:29:51.774Z,95262.16
2023-01-19T11:32:23.423Z,95271.22
2023-01-19T11:34:52.988Z,95266.84
2023-01-19T11:37:29.957Z,95269.41
2023-01-19T11:40:06.634Z,95271.22
2023-01-19T11:42:36.585Z,95282.94
2023-01-19T11:45:08.773Z,95270.22
2023-01-19T11:47:41.972Z,95274.16
2023-01-19T11:50:15.909Z,95276.44
2023-01-19T11:52:47.279Z,95266.63
2023-01-19T11:55:19.995Z,95271.19
2023-01-19T11:57:49.881Z,95267.53
2023-01-19T12:00:29.821Z,95267.06
2023-01-19T12:03:04.465Z,95267.06
2023-01-19T12:05:35.491Z,95267.66
2023-01-19T12:08:07.353Z,95263.38
2023-01-19T12:10:41.609Z,95270.50
2023-01-19T12:13:19.233Z,95264.22
2023-01-19T12:15:50.851Z,95270.91
2023-01-19T12:18:23.654Z,95271.53
2023-01-19T12:20:55.318Z,95270.34
2023-01-19T12:23:31.562Z,95270.13
2023-01-19T12:26:12.634Z,95275.69
2023-01-19T12:28:42.741Z,95284.94
2023-01-19T12:31:11.161Z,95275.84
2023-01-19T12:33:41.396Z,95275.41
2023-01-19T12:36:12.364Z,95280.00
2023-01-19T12:38:48.491Z,95280.59
2023-01-19T12:41:25.487Z,95290.44
2023-01-19T12:44:28.449Z,95281.63
2023-01-19T12:47:03.401Z,95278.09
2023-01-19T12:49:36.635Z,95274.16
2023-01-19T12:52:26.825Z,95282.16
2023-01-19T12:55:00.162Z,95282.53
2023-01-19T12:57:31.720Z,95276.88
2023-01-19T13:00:01.651Z,95280.91
2023-01-19T13:02:51.360Z,95278.81
2023-01-19T13:05:57.211Z,95276.00
2023-01-19T13:08:28.246Z,95286.81
2023-01-19T13:11:26.274Z,95282.06
2023-01-19T13:14:36.115Z,95288.88
2023-01-19T13:17:24.375Z,95288.44
2023-01-19T13:20:19.291Z,95286.81
2023-01-19T13:23:24.181Z,95296.44
2023-01-19T13:25:54.581Z,95290.66
2023-01-19T13:28:31.633Z,95296.16
2023-01-19T13:31:02.615Z,95299.84
2023-01-19T13:33:40.848Z,95301.69
2023-01-19T13:36:20.682Z,95313.59
2023-01-19T13:38:53.026Z,95311.97
2023-01-19T13:41:25.223Z,95306.63
2023-01-19T13:43:58.190Z,95305.47
2023-01-19T13:46:29.771Z,95319.19
2023-01-19T13:49:01.145Z,95317.59
2023-01-19T13:51:29.051Z,95322.13
2023-01-19T13:54:01.591Z,95324.50
2023-01-19T13:56:30.277Z,95319.84
2023-01-19T13:59:10.317Z,95329.09
2023-01-19T14:01:42.939Z,95326.72
2023-01-19T14:04:28.324Z,95332.31
2023-01-19T14:06:58.558Z,95334.63
2023-01-19T14:09:29.473Z,95330.81
2023-01-19T14:12:12.560Z,95337.66
2023-01-19T14:14:41.955Z,95341.47
2023-01-19T14:17:26.610Z,95344.59
2023-01-19T14:19:55.757Z,95347.25
2023-01-19T14:22:38.632Z,95352.28
2023-01-19T14:25:30.681Z,95352.41
2023-01-19T14:28:35.407Z,95356.84
2023-01-19T14:31:06.890Z,95353.75
2023-01-19T14:33:36.297Z,95358.78
2023-01-19T14:36:36.737Z,95360.31
2023-01-19T14:39:04.895Z,95362.59
2023-01-19T14:41:41.371Z,95370.75
2023-01-19T14:44:09.945Z,95368.63
2023-01-19T14:46:38.020Z,95366.97
2023-01-19T14:49:07.444Z,95363.72
2023-01-19T14:51:35.590Z,95368.97
2023-01-19T14:54:04.887Z,95364.88
2023-01-19T14:56:35.733Z,95374.25
2023-01-19T14:59:06.674Z,95375.81
2023-01-19T15:01:34.695Z,95377.50
2023-01-19T15:04:02.671Z,95386.84
2023-01-19T15:06:30.593Z,95387.88
2023-01-19T15:09:01.167Z,95384.22
2023-01-19T15:11:32.489Z,95392.16
2023-01-19T15:14:02.529Z,95398.94
2023-01-19T15:16:31.268Z,95403.22
2023-01-19T15:18:59.265Z,95400.91
2023-01-19T15:21:29.507Z,95405.03
2023-01-19T15:23:58.406Z,95412.13
2023-01-19T15:26:29.339Z,95417.91
2023-01-19T15:28:58.883Z,95423.41
2023-01-19T15:31:28.278Z,95424.56
2023-01-19T15:33:56.579Z,95425.09
2023-01-19T15:36:25.275Z,95423.19
2023-01-19T15:38:53.169Z,95423.50
2023-01-19T15:41:25.095Z,95437.78
2023-01-19T15:43:53.375Z,95430.22
2023-01-19T15:46:21.729Z,95439.44
2023-01-19T15:48:51.659Z,95432.41
2023-01-19T15:51:21.499Z,95437.75
2023-01-19T15:53:49.846Z,95439.31
2023-01-19T15:56:21.270Z,95440.38
2023-01-19T15:58:49.339Z,95450.41
2023-01-19T16:01:21.588Z,95462.22
2023-01-19T16:03:51.252Z,95457.31
2023-01-19T16:06:19.206Z,95457.31
2023-01-19T16:08:47.137Z,95459.16
2023-01-19T16:11:18.494Z,95457.06
2023-01-19T16:13:46.709Z,95460.47
2023-01-19T16:16:16.816Z,95468.13
2023-01-19T16:18:44.757Z,95469.88
2023-01-19T16:21:14.157Z,95475.88
2023-01-19T16:23:42.083Z,95473.19
2023-01-19T16:26:24.799Z,95488.00
2023-01-19T16:28:52.729Z,95485.06
2023-01-19T16:31:20.651Z,95489.69
2023-01-19T16:33:48.572Z,95493.16
2023-01-19T16:36:26.364Z,95494.22
2023-01-19T16:38:54.890Z,95503.28
2023-01-19T16:41:22.849Z,95500.88
2023-01-19T16:43:54.118Z,95503.50
2023-01-19T16:46:24.115Z,95496.72
2023-01-19T16:48:52.246Z,95500.69
2023-01-19T16:51:20.682Z,95504.22
2023-01-19T16:53:51.581Z,95500.16
2023-01-19T16:56:19.919Z,95502.75
2023-01-19T16:58:47.833Z,95506.00
2023-01-19T17:01:19.662Z,95512.09
2023-01-19T17:03:48.570Z,95514.53
2023-01-19T17:06:18.552Z,95511.16
2023-01-19T17:08:47.992Z,95516.28
2023-01-19T17:11:20.741Z,95522.97
2023-01-19T17:13:51.061Z,95527.16
2023-01-19T17:16:19.040Z,95527.16
2023-01-19T17:18:47.068Z,95524.69
2023-01-19T17:21:20.260Z,95532.09
2023-01-19T17:23:50.011Z,95529.72
2023-01-19T17:26:19.582Z,95531.47
2023-01-19T17:28:48.095Z,95533.25
2023-01-19T17:31:17.780Z,95528.31
2023-01-19T17:33:46.646Z,95530.63
2023-01-19T17:36:16.162Z,95531.34
2023-01-19T17:38:44.367Z,95525.72
2023-01-19T17:41:16.114Z,95528.66
2023-01-19T17:43:47.646Z,95531.56
2023-01-19T17:46:17.340Z,95520.47
2023-01-19T17:48:46.946Z,95529.78
2023-01-19T17:51:14.855Z,95522.66
2023-01-19T17:53:44.696Z,95522.66
2023-01-19T17:56:14.866Z,95524.50
2023-01-19T17:58:43.013Z,95521.00
2023-01-19T18:01:14.898Z,95527.06
2023-01-19T18:03:43.397Z,95526.03
2023-01-19T18:06:11.596Z,95527.91
2023-01-19T18:08:40.024Z,95520.59
2023-01-19T18:11:08.514Z,95523.28
2023-01-19T18:13:39.335Z,95516.97
2023-01-19T18:16:09.665Z,95516.84
2023-01-19T18:18:39.136Z,95519.66
2023-01-19T18:21:09.328Z,95515.56
2023-01-19T18:23:37.599Z,95513.81
2023-01-19T18:26:07.241Z,95510.72
2023-01-19T18:28:35.621Z,95511.69
2023-01-19T18:31:04.266Z,95512.84
2023-01-19T18:33:36.112Z,95521.75
2023-01-19T18:36:06.156Z,95517.66
2023-01-19T18:38:36.067Z,95528.84
2023-01-19T18:41:07.061Z,95524.44
2023-01-19T18:43:36.947Z,95522.03
2023-01-19T18:46:05.108Z,95528.88
2023-01-19T18:48:34.592Z,95524.97
2023-01-19T18:51:07.795Z,95530.00
2023-01-19T18:53:35.861Z,95530.50
2023-01-19T18:56:04.267Z,95535.50
2023-01-19T18:58:32.994Z,95539.50
2023-01-19T19:01:02.042Z,95524.84
2023-01-19T19:03:30.572Z,95537.91
2023-01-19T19:05:58.564Z,95536.66
2023-01-19T19:08:27.871Z,95538.34
2023-01-19T19:10:55.769Z,95538.09
2023-01-19T19:13:23.699Z,95539.78
2023-01-19T19:15:52.640Z,95533.41
2023-01-19T19:18:20.692Z,95533.69
2023-01-19T19:20:48.583Z,95526.81
2023-01-19T19:23:16.538Z,95523.78
2023-01-19T19:25:45.809Z,95519.72
2023-01-19T19:28:13.766Z,95515.56
2023-01-19T19:30:44.052Z,95519.69
2023-01-19T19:33:13.776Z,95521.00
2023-01-19T19:35:41.660Z,95523.16
2023-01-19T19:38:15.083Z,95527.78
2023-01-19T19:40:42.979Z,95523.31
2023-01-19T19:43:13.516Z,95520.13
2023-01-19T19:45:41.486Z,95522.53
2023-01-19T19:48:11.804Z,95525.66
2023-01-19T19:50:39.765Z,95519.66
2023-01-19T19:53:07.668Z,95525.75
2023-01-19T19:55:37.322Z,95523.28
2023-01-19T19:58:05.238Z,95532.16
2023-01-19T20:00:34.583Z,95534.41
2023-01-19T20:03:04.943Z,95533.66
2023-01-19T20:05:32.840Z,95541.38
2023-01-19T20:08:01.854Z,95534.69
2023-01-19T20:10:30.081Z,95522.25
2023-01-19T20:13:00.332Z,95521.47
2023-01-19T20:15:28.255Z,95521.25
2023-01-19T20:17:57.642Z,95517.06
2023-01-19T20:20:25.648Z,95514.34
2023-01-19T20:22:53.576Z,95509.88
2023-01-19T20:25:21.572Z,95509.88
2023-01-19T20:27:51.811Z,95510.22
2023-01-19T20:30:19.753Z,95500.72
2023-01-19T20:32:47.751Z,95493.06
2023-01-19T20:35:18.217Z,95489.63
2023-01-19T20:37:46.133Z,95499.13
2023-01-19T20:40:14.110Z,95503.19
2023-01-19T20:42:43.276Z,95497.88
2023-01-19T20:45:11.696Z,95503.16
2023-01-19T20:47:39.716Z,95504.47
2023-01-19T20:50:09.830Z,95506.22
2023-01-19T20:52:39.142Z,95508.75
2023-01-19T20:55:11.703Z,95516.44
2023-01-19T20:57:39.735Z,95522.31
2023-01-19T21:00:08.868Z,95534.31
2023-01-19T21:02:36.812Z,95538.53
2023-01-19T21:05:05.088Z,95547.38
2023-01-19T21:07:33.028Z,95547.00
2023-01-19T21:10:02.330Z,95553.06
2023-01-19T21:12:30.230Z,95565.56
2023-01-19T21:14:59.944Z,95570.56
2023-01-19T21:17:27.856Z,95586.63
2023-01-19T21:19:58.104Z,95584.38
2023-01-19T21:22:26.041Z,95586.97
2023-01-19T21:24:53.950Z,95591.97
2023-01-19T21:27:23.212Z,95601.38
2023-01-19T21:29:51.104Z,95601.78
2023-01-19T21:32:19.023Z,95603.34
2023-01-19T21:34:47.032Z,95619.25
2023-01-19T21:37:16.882Z,95613.44
2023-01-19T21:39:44.803Z,95627.88
2023-01-19T21:42:12.700Z,95637.16
2023-01-19T21:44:42.013Z,95634.78
2023-01-19T21:47:11.868Z,95631.28
2023-01-19T21:49:41.922Z,95631.69
2023-01-19T21:52:09.835Z,95637.22
2023-01-19T21:54:39.130Z,95637.16
2023-01-19T21:57:07.047Z,95634.06
2023-01-19T21:59:37.019Z,95629.00
2023-01-19T22:02:08.807Z,95635.06
2023-01-19T22:04:36.749Z,95634.16
2023-01-19T22:07:04.663Z,95623.22
2023-01-19T22:09:34.656Z,95622.50
2023-01-19T22:12:02.856Z,95615.84
2023-01-19T22:14:31.024Z,95627.78
2023-01-19T22:16:58.976Z,95618.72
2023-01-19T22:19:28.667Z,95617.22
2023-01-19T22:21:58.868Z,95615.88
2023-01-19T22:24:26.802Z,95615.16
2023-01-19T22:26:58.841Z,95609.88
2023-01-19T22:29:26.724Z,95600.69
2023-01-19T22:31:54.937Z,95604.34
2023-01-19T22:34:22.839Z,95599.38
2023-01-19T22:36:52.143Z,95597.00
2023-01-19T22:39:22.909Z,95590.53
2023-01-19T22:41:50.799Z,95588.81
2023-01-19T22:44:22.576Z,95590.47
2023-01-19T22:46:52.871Z,95591.56
2023-01-19T22:49:20.815Z,95585.06
2023-01-19T22:51:51.231Z,95578.31
2023-01-19T22:54:21.339Z,95572.53
2023-01-19T22:56:50.389Z,95577.41
2023-01-19T22:59:18.313Z,95574.25
2023-01-19T23:01:47.224Z,95574.03
2023-01-19T23:04:18.526Z,95572.06
2023-01-19T23:06:50.432Z,95568.31
2023-01-19T23:09:20.022Z,95572.38
2023-01-19T23:11:50.672Z,95569.97
2023-01-19T23:14:20.466Z,95559.13
2023-01-19T23:16:48.745Z,95562.31
2023-01-19T23:19:26.657Z,95556.69
2023-01-19T23:21:54.571Z,95564.34
2023-01-19T23:24:28.513Z,95568.50
2023-01-19T23:26:56.429Z,95569.22
2023-01-19T23:29:24.426Z,95566.91
2023-01-19T23:31:53.580Z,95568.38
2023-01-19T23:34:21.543Z,95557.69
2023-01-19T23:36:49.590Z,95552.53
2023-01-19T23:39:19.261Z,95550.09
2023-01-19T23:41:51.737Z,95548.75
2023-01-19T23:44:19.826Z,95552.38
2023-01-19T23:46:48.003Z,95556.75
2023-01-19T23:49:16.944Z,95556.66
2023-01-19T23:51:44.856Z,95556.72
2023-01-19T23:54:15.272Z,95550.97
2023-01-19T23:56:43.173Z,95556.28
2023-01-19T23:59:13.809Z,95557.16
